Time;durP1;ratioP1;P1;durP2;ratioP2;P2;SDS_P1;SDS_P2;PMS_P1;PMS_P2;Temp;Humidity;BMP_temperature;BMP_pressure;BME280_temperature;BME280_humidity;BME280_pressure;Samples;Min_cycle;Max_cycle;Signal;HPM_P1;HPM_P2
2022/01/17 00:01:30;;;;;;;15.90;2.17;;;5.90;99.90;;;;;;5035137;28;20945;-86
2022/01/17 00:03:56;;;;;;;7.23;1.63;;;5.90;99.90;;;;;;5035029;28;20416;-86
2022/01/17 00:06:22;;;;;;;13.37;1.10;;;5.90;99.90;;;;;;5052815;28;20422;-85
2022/01/17 00:08:49;;;;;;;19.93;3.00;;;5.90;99.90;;;;;;5053000;28;20182;-86
2022/01/17 00:11:19;;;;;;;8.13;1.23;;;5.90;99.90;;;;;;5052591;28;20165;-85
2022/01/17 00:13:46;;;;;;;11.80;1.20;;;5.80;99.90;;;;;;5034718;28;20432;-87
2022/01/17 00:16:18;;;;;;;5.87;1.23;;;5.70;99.90;;;;;;5052761;28;20422;-85
2022/01/17 00:21:13;;;;;;;8.50;1.13;;;5.80;99.90;;;;;;5032643;28;20901;-85
2022/01/17 00:23:39;;;;;;;4.70;0.87;;;5.80;99.90;;;;;;5031320;28;20425;-86
2022/01/17 00:26:05;;;;;;;7.87;1.37;;;5.90;99.90;;;;;;5014564;28;20505;-87
2022/01/17 00:28:31;;;;;;;4.40;0.73;;;5.90;99.90;;;;;;5032628;28;20538;-86
2022/01/17 00:30:57;;;;;;;9.87;1.60;;;5.90;99.90;;;;;;5031458;28;20179;-85
2022/01/17 00:33:23;;;;;;;18.50;3.90;;;5.90;99.90;;;;;;5014897;28;20491;-85
2022/01/17 00:35:50;;;;;;;13.50;2.60;;;5.90;99.90;;;;;;5032487;28;20229;-85
2022/01/17 00:38:16;;;;;;;6.00;0.83;;;5.90;99.90;;;;;;5032441;28;20178;-85
2022/01/17 00:40:42;;;;;;;9.30;1.10;;;5.90;99.90;;;;;;5014287;28;20437;-85
2022/01/17 00:43:12;;;;;;;10.00;1.50;;;5.90;99.90;;;;;;5032488;28;20179;-85
2022/01/17 00:45:40;;;;;;;13.30;3.13;;;6.00;99.90;;;;;;5032413;28;20436;-85
2022/01/17 00:48:06;;;;;;;7.73;1.97;;;6.00;99.90;;;;;;5032024;28;20473;-88
2022/01/17 00:50:33;;;;;;;5.60;0.87;;;6.00;99.90;;;;;;5032327;28;20411;-85
2022/01/17 00:53:04;;;;;;;13.17;1.70;;;6.00;99.90;;;;;;5032621;28;20425;-87
2022/01/17 00:55:31;;;;;;;8.37;0.70;;;6.10;99.90;;;;;;5014766;28;20444;-87
2022/01/17 00:57:56;;;;;;;14.00;1.83;;;6.10;99.90;;;;;;5032609;28;20410;-87
2022/01/17 01:00:25;;;;;;;8.70;1.80;;;6.10;99.90;;;;;;5032856;28;20406;-87
2022/01/17 01:02:50;;;;;;;7.23;0.80;;;6.20;99.90;;;;;;5032541;28;20180;-86
2022/01/17 01:05:16;;;;;;;10.57;1.00;;;6.20;99.90;;;;;;5032525;28;20439;-87
2022/01/17 01:07:43;;;;;;;6.73;1.17;;;6.10;99.90;;;;;;5032592;28;20214;-88
2022/01/17 01:10:10;;;;;;;7.90;1.57;;;6.20;99.90;;;;;;5036361;28;20409;-87
2022/01/17 01:12:40;;;;;;;7.70;1.07;;;6.20;99.90;;;;;;5036615;28;20421;-87
2022/01/17 01:15:12;;;;;;;9.80;2.07;;;6.20;99.90;;;;;;5036507;28;20436;-86
2022/01/17 01:17:49;;;;;;;6.80;2.00;;;6.20;99.90;;;;;;5018587;28;20924;-87
2022/01/17 01:20:56;;;;;;;11.20;2.20;;;6.20;99.90;;;;;;5018420;28;20488;-86
2022/01/17 01:28:44;;;;;;;7.33;1.23;;;6.10;99.90;;;;;;5053800;28;20424;-85
2022/01/17 01:31:18;;;;;;;8.30;2.00;;;6.20;99.90;;;;;;5037107;28;20402;-86
2022/01/17 01:33:51;;;;;;;7.67;1.20;;;6.20;99.90;;;;;;5032936;28;20393;-85
2022/01/17 01:36:24;;;;;;;11.90;1.80;;;6.20;99.90;;;;;;5040239;28;20407;-87
2022/01/17 01:38:49;;;;;;;9.33;1.30;;;6.20;99.90;;;;;;5036275;28;20434;-87
2022/01/17 01:41:15;;;;;;;9.13;1.53;;;6.20;99.90;;;;;;5036425;28;20905;-88
2022/01/17 01:43:41;;;;;;;10.33;1.90;;;6.20;99.90;;;;;;5036417;28;20224;-87
2022/01/17 01:46:06;;;;;;;6.23;0.70;;;6.20;99.90;;;;;;5018495;28;20667;-87
2022/01/17 01:48:35;;;;;;;8.00;1.60;;;6.20;99.90;;;;;;5018383;28;20213;-88
2022/01/17 01:51:01;;;;;;;10.20;1.07;;;6.30;99.90;;;;;;5035918;28;20227;-87
2022/01/17 01:53:27;;;;;;;5.37;0.83;;;6.30;99.90;;;;;;5036003;28;20428;-86
2022/01/17 01:55:55;;;;;;;7.20;0.83;;;6.30;99.90;;;;;;5035516;28;20455;-87
2022/01/17 01:58:22;;;;;;;6.73;0.77;;;6.20;99.90;;;;;;5035575;28;20425;-88
2022/01/17 02:00:48;;;;;;;13.47;2.30;;;6.20;99.90;;;;;;5017854;28;20424;-86
2022/01/17 02:03:14;;;;;;;18.37;2.43;;;6.20;99.90;;;;;;5035630;28;20832;-87
2022/01/17 02:05:40;;;;;;;8.00;1.40;;;6.20;99.90;;;;;;5018001;28;20413;-86
2022/01/17 02:08:08;;;;;;;8.13;0.93;;;6.20;99.90;;;;;;5035728;28;20211;-84
2022/01/17 02:10:33;;;;;;;7.00;1.30;;;6.20;99.90;;;;;;5035489;28;20917;-82
2022/01/17 02:12:59;;;;;;;8.87;2.03;;;6.30;99.90;;;;;;5035583;28;20526;-90
2022/01/17 02:15:24;;;;;;;7.20;1.70;;;6.30;99.90;;;;;;5036296;28;20166;-83
2022/01/17 02:17:55;;;;;;;19.40;1.53;;;6.30;99.90;;;;;;5036677;28;20511;-91
2022/01/17 02:20:23;;;;;;;12.00;1.80;;;6.40;99.90;;;;;;5035862;28;20700;-92
2022/01/17 02:22:52;;;;;;;9.17;1.77;;;6.30;99.90;;;;;;5037196;28;20531;-83
2022/01/17 02:25:18;;;;;;;13.50;2.47;;;6.30;99.90;;;;;;5035292;28;20913;-85
2022/01/17 02:27:44;;;;;;;8.63;2.13;;;6.30;99.90;;;;;;5036197;28;20479;-86
2022/01/17 02:30:12;;;;;;;10.40;1.90;;;6.30;99.90;;;;;;5017687;28;20413;-83
2022/01/17 02:32:39;;;;;;;14.47;1.90;;;6.30;99.90;;;;;;5036986;28;20500;-92
2022/01/17 02:35:22;;;;;;;10.60;1.40;;;6.40;99.90;;;;;;5036304;28;20403;-91
2022/01/17 02:37:48;;;;;;;10.03;1.90;;;6.40;99.90;;;;;;5035728;28;20479;-84
2022/01/17 02:40:16;;;;;;;9.57;1.20;;;6.40;99.90;;;;;;5034771;28;20753;-84
2022/01/17 02:42:43;;;;;;;4.50;1.07;;;6.30;99.90;;;;;;5037110;28;20966;-92
2022/01/17 02:45:19;;;;;;;12.97;1.73;;;6.40;99.90;;;;;;5035409;28;20408;-84
2022/01/17 02:47:45;;;;;;;11.27;2.00;;;6.40;99.90;;;;;;5034949;28;20828;-83
2022/01/17 02:50:11;;;;;;;14.97;2.17;;;6.40;99.90;;;;;;5018599;28;20422;-83
2022/01/17 02:52:37;;;;;;;8.23;1.00;;;6.40;99.90;;;;;;5034759;28;20186;-83
2022/01/17 02:55:03;;;;;;;14.40;1.23;;;6.50;99.90;;;;;;5035744;28;20406;-85
2022/01/17 02:57:32;;;;;;;10.80;1.03;;;6.50;99.90;;;;;;5034890;28;20177;-83
2022/01/17 02:59:58;;;;;;;11.30;2.50;;;6.50;99.90;;;;;;5034782;28;20478;-83
2022/01/17 03:02:23;;;;;;;8.10;1.20;;;6.50;99.90;;;;;;5034558;28;20496;-83
2022/01/17 03:04:49;;;;;;;11.80;1.67;;;6.50;99.90;;;;;;5034598;28;20639;-84
2022/01/17 03:07:14;;;;;;;6.87;1.27;;;6.50;99.90;;;;;;5034345;28;20352;-90
2022/01/17 03:09:49;;;;;;;13.60;2.80;;;6.60;99.90;;;;;;5034946;28;20170;-85
2022/01/17 03:12:15;;;;;;;12.60;1.50;;;6.60;99.90;;;;;;5034511;28;20175;-83
2022/01/17 03:14:40;;;;;;;8.50;2.20;;;6.60;99.90;;;;;;5034378;28;20496;-83
2022/01/17 03:17:06;;;;;;;6.90;1.13;;;6.60;99.90;;;;;;5034237;28;20186;-84
2022/01/17 03:19:32;;;;;;;10.50;1.97;;;6.60;99.90;;;;;;5034267;28;20243;-82
2022/01/17 03:21:57;;;;;;;7.97;1.17;;;6.60;99.90;;;;;;5035843;28;20599;-83
2022/01/17 03:24:22;;;;;;;8.90;2.20;;;6.60;99.90;;;;;;5034808;28;20403;-92
2022/01/17 03:26:48;;;;;;;18.60;2.07;;;6.60;99.90;;;;;;5016711;28;20240;-83
2022/01/17 03:29:16;;;;;;;9.00;1.50;;;6.60;99.90;;;;;;5034646;28;20253;-81
2022/01/17 03:31:42;;;;;;;3.60;0.83;;;6.60;99.90;;;;;;5033738;28;20175;-82
2022/01/17 03:34:07;;;;;;;13.60;1.47;;;6.60;99.90;;;;;;5034267;28;20418;-85
2022/01/17 03:36:33;;;;;;;5.30;1.03;;;6.60;99.90;;;;;;5034304;28;20162;-92
2022/01/17 03:38:58;;;;;;;9.27;1.13;;;6.60;99.90;;;;;;5033823;28;20190;-84
2022/01/17 03:41:24;;;;;;;8.40;1.23;;;6.60;99.90;;;;;;5034412;28;20707;-93
2022/01/17 03:43:50;;;;;;;11.50;1.37;;;6.60;99.90;;;;;;5034980;28;20534;-88
2022/01/17 03:46:15;;;;;;;10.73;1.33;;;6.60;99.90;;;;;;5034670;28;20412;-84
2022/01/17 03:48:41;;;;;;;12.17;1.70;;;6.60;99.90;;;;;;5034076;28;20198;-83
2022/01/17 03:51:06;;;;;;;12.93;1.00;;;6.60;99.90;;;;;;5034306;28;20645;-87
2022/01/17 03:53:32;;;;;;;8.27;1.37;;;6.70;99.90;;;;;;5033691;28;20179;-84
2022/01/17 03:55:58;;;;;;;14.97;1.17;;;6.70;99.90;;;;;;5034265;28;20225;-91
2022/01/17 03:58:27;;;;;;;9.37;1.37;;;6.70;99.90;;;;;;5034007;28;20229;-86
2022/01/17 04:00:55;;;;;;;14.77;3.00;;;6.70;99.90;;;;;;5034072;28;20179;-82
2022/01/17 04:03:21;;;;;;;11.53;2.07;;;6.70;99.90;;;;;;5033385;28;20515;-82
2022/01/17 04:05:47;;;;;;;14.00;2.73;;;6.60;99.90;;;;;;5034821;28;20410;-82
2022/01/17 04:08:12;;;;;;;16.23;2.07;;;6.60;99.90;;;;;;5034141;28;20472;-83
2022/01/17 04:10:39;;;;;;;11.00;2.07;;;6.70;99.90;;;;;;5033983;28;20258;-90
2022/01/17 04:13:04;;;;;;;9.27;1.93;;;6.70;99.90;;;;;;5033033;28;20186;-82
2022/01/17 04:15:32;;;;;;;10.07;0.87;;;6.70;99.90;;;;;;5033827;28;20768;-82
2022/01/17 04:17:59;;;;;;;7.03;1.97;;;6.70;99.90;;;;;;5033726;28;20624;-91
2022/01/17 04:20:27;;;;;;;5.60;1.07;;;6.70;99.90;;;;;;5033520;28;20468;-92
2022/01/17 04:22:57;;;;;;;9.70;2.30;;;6.70;99.90;;;;;;5033762;28;20432;-90
2022/01/17 04:25:25;;;;;;;5.27;1.03;;;6.70;99.90;;;;;;5033494;28;20497;-82
2022/01/17 04:27:52;;;;;;;6.40;1.70;;;6.80;99.90;;;;;;5016002;28;21040;-82
2022/01/17 04:30:20;;;;;;;7.07;1.40;;;6.80;99.90;;;;;;5033264;28;20420;-86
2022/01/17 04:32:46;;;;;;;7.43;0.83;;;6.80;99.90;;;;;;5033602;28;20427;-83
2022/01/17 04:35:14;;;;;;;7.20;0.67;;;6.80;99.90;;;;;;5033656;28;20417;-85
2022/01/17 04:37:43;;;;;;;11.03;0.80;;;6.80;99.90;;;;;;5033709;28;20496;-84
2022/01/17 04:40:09;;;;;;;9.03;1.57;;;6.80;99.90;;;;;;5032953;28;20413;-92
2022/01/17 04:42:34;;;;;;;8.70;1.23;;;6.80;99.90;;;;;;5034864;28;20409;-82
2022/01/17 04:45:11;;;;;;;4.90;0.80;;;6.80;99.90;;;;;;5037202;28;20754;-86
2022/01/17 04:47:39;;;;;;;11.37;1.67;;;6.80;99.90;;;;;;5037315;28;20213;-89
2022/01/17 04:50:07;;;;;;;9.50;1.50;;;6.80;99.90;;;;;;5037385;28;20402;-88
2022/01/17 04:52:33;;;;;;;9.03;2.73;;;6.80;99.90;;;;;;5037237;28;20939;-90
2022/01/17 04:55:02;;;;;;;5.93;0.77;;;6.80;99.90;;;;;;5019035;28;20424;-83
2022/01/17 04:57:27;;;;;;;17.60;2.53;;;6.90;99.90;;;;;;5037205;28;20418;-82
2022/01/17 04:59:53;;;;;;;8.97;2.03;;;6.90;99.90;;;;;;5037124;28;20401;-87
2022/01/17 05:02:19;;;;;;;7.10;2.03;;;6.90;99.90;;;;;;5037136;28;20178;-83
2022/01/17 05:04:45;;;;;;;5.97;1.27;;;6.80;99.90;;;;;;5037176;28;20628;-82
2022/01/17 05:07:11;;;;;;;12.63;1.50;;;6.80;99.90;;;;;;5036788;28;20483;-81
2022/01/17 05:09:41;;;;;;;6.63;0.80;;;6.70;99.90;;;;;;5037430;28;20418;-90
2022/01/17 05:12:07;;;;;;;8.93;1.90;;;6.60;99.90;;;;;;5037841;28;20401;-87
2022/01/17 05:14:33;;;;;;;7.67;1.20;;;6.60;99.90;;;;;;5020277;28;20483;-85
2022/01/17 05:17:10;;;;;;;8.30;2.33;;;6.60;99.90;;;;;;5037215;28;20413;-90
2022/01/17 05:19:56;;;;;;;11.60;2.23;;;6.60;99.90;;;;;;5020241;28;20705;-93
2022/01/17 05:22:23;;;;;;;12.03;2.10;;;6.70;99.90;;;;;;5019982;28;20509;-82
2022/01/17 05:24:48;;;;;;;10.90;1.17;;;6.70;99.90;;;;;;5037115;28;20438;-83
2022/01/17 05:27:14;;;;;;;14.83;1.33;;;6.80;99.90;;;;;;5037540;28;20487;-83
2022/01/17 05:29:40;;;;;;;7.80;1.50;;;6.80;99.90;;;;;;5040867;28;20169;-88
2022/01/17 05:32:06;;;;;;;9.27;1.30;;;6.80;99.90;;;;;;5021139;28;20427;-83
2022/01/17 05:34:37;;;;;;;12.17;2.27;;;6.90;99.90;;;;;;5037401;28;20700;-83
2022/01/17 05:37:03;;;;;;;12.20;1.70;;;6.90;99.90;;;;;;5037452;28;20288;-92
2022/01/17 05:39:29;;;;;;;13.33;2.90;;;7.00;99.90;;;;;;5040645;28;20409;-92
2022/01/17 05:41:54;;;;;;;14.83;0.87;;;7.00;99.90;;;;;;5043288;28;20175;-91
2022/01/17 05:44:20;;;;;;;17.00;2.70;;;7.00;99.90;;;;;;5041730;28;20171;-83
2022/01/17 05:46:45;;;;;;;14.40;2.00;;;7.00;99.90;;;;;;5037122;28;20234;-83
2022/01/17 05:49:11;;;;;;;9.10;3.47;;;7.00;99.90;;;;;;5019516;28;20279;-88
2022/01/17 05:51:36;;;;;;;11.97;2.83;;;7.00;99.90;;;;;;5037490;28;20201;-93
2022/01/17 05:54:02;;;;;;;11.50;2.30;;;7.00;99.90;;;;;;5035551;28;20630;-83
2022/01/17 05:56:27;;;;;;;6.77;1.57;;;7.10;99.90;;;;;;5037099;28;20546;-85
2022/01/17 05:58:53;;;;;;;11.43;2.20;;;7.10;99.90;;;;;;5037321;28;20198;-83
2022/01/17 06:01:18;;;;;;;11.87;2.37;;;7.00;99.90;;;;;;5036768;28;20640;-83
2022/01/17 06:03:44;;;;;;;14.63;2.27;;;7.10;99.90;;;;;;5019105;28;20166;-83
2022/01/17 06:06:09;;;;;;;13.67;2.20;;;7.10;99.90;;;;;;5036593;28;20673;-92
2022/01/17 06:08:35;;;;;;;10.20;1.90;;;7.10;99.90;;;;;;5036629;28;20210;-92
2022/01/17 06:11:01;;;;;;;16.67;3.13;;;7.10;99.90;;;;;;5037216;28;20170;-87
2022/01/17 06:13:26;;;;;;;14.50;2.60;;;7.10;99.90;;;;;;5032263;28;20659;-84
2022/01/17 06:15:52;;;;;;;12.43;2.00;;;7.10;99.90;;;;;;5035847;28;20175;-89
2022/01/17 06:18:17;;;;;;;6.27;1.90;;;7.10;99.90;;;;;;5035817;28;20175;-93
2022/01/17 06:20:43;;;;;;;19.70;2.57;;;7.00;99.90;;;;;;5018470;28;20174;-85
2022/01/17 06:23:08;;;;;;;11.53;2.10;;;7.10;99.90;;;;;;5035136;28;20177;-82
2022/01/17 06:25:34;;;;;;;10.97;1.90;;;7.00;99.90;;;;;;5035249;28;20177;-94
2022/01/17 06:27:59;;;;;;;16.87;3.40;;;7.10;99.90;;;;;;5035642;28;20204;-85
2022/01/17 06:30:25;;;;;;;12.83;2.30;;;7.20;99.90;;;;;;5035556;28;20182;-90
2022/01/17 06:32:51;;;;;;;5.80;1.53;;;7.20;99.90;;;;;;5035828;28;20175;-85
2022/01/17 06:35:18;;;;;;;15.10;2.77;;;7.20;99.90;;;;;;5018770;28;20409;-83
2022/01/17 06:37:44;;;;;;;10.33;1.60;;;7.20;99.90;;;;;;5036603;28;20498;-84
2022/01/17 06:40:12;;;;;;;14.73;2.33;;;7.20;99.90;;;;;;5035721;28;20457;-90
2022/01/17 06:42:38;;;;;;;10.20;1.67;;;7.20;99.90;;;;;;5035955;28;20417;-82
2022/01/17 06:45:05;;;;;;;21.63;2.20;;;7.10;99.90;;;;;;5036341;28;20902;-90
2022/01/17 06:47:32;;;;;;;21.20;2.97;;;7.10;99.90;;;;;;5035715;28;20542;-90
2022/01/17 06:49:57;;;;;;;11.13;2.63;;;7.10;99.90;;;;;;5035799;28;20422;-83
2022/01/17 06:52:23;;;;;;;18.70;4.57;;;7.10;99.90;;;;;;5035509;28;20425;-83
2022/01/17 06:54:55;;;;;;;15.83;3.00;;;7.10;99.90;;;;;;5034909;28;20168;-85
2022/01/17 06:57:20;;;;;;;10.80;3.00;;;7.20;99.90;;;;;;5035811;28;20459;-94
2022/01/17 06:59:46;;;;;;;11.73;2.17;;;7.10;99.90;;;;;;5017848;28;20424;-81
2022/01/17 07:02:11;;;;;;;14.87;3.60;;;7.20;99.90;;;;;;5035731;28;20171;-88
2022/01/17 07:04:37;;;;;;;14.87;3.00;;;7.10;99.90;;;;;;5035975;28;20167;-84
2022/01/17 07:07:03;;;;;;;13.27;2.03;;;7.10;99.90;;;;;;5034346;28;20330;-84
2022/01/17 07:09:29;;;;;;;8.43;2.73;;;7.10;99.90;;;;;;5035338;28;20167;-92
2022/01/17 07:11:58;;;;;;;18.30;2.80;;;7.10;99.90;;;;;;5035244;28;20438;-87
2022/01/17 07:14:28;;;;;;;11.70;2.20;;;7.10;99.90;;;;;;5035493;28;20467;-91
2022/01/17 07:16:54;;;;;;;14.80;2.47;;;;;;;;;;5016816;28;20436;-91
2022/01/17 07:19:19;;;;;;;9.27;3.03;;;7.10;99.90;;;;;;5034583;28;20526;-91
2022/01/17 07:21:45;;;;;;;19.43;3.13;;;7.10;99.90;;;;;;5034913;28;20418;-88
2022/01/17 07:24:11;;;;;;;13.27;2.73;;;7.10;99.90;;;;;;5034158;28;20175;-91
2022/01/17 07:26:36;;;;;;;17.47;2.50;;;7.10;99.90;;;;;;5034594;28;20170;-91
2022/01/17 07:29:05;;;;;;;13.60;2.33;;;7.10;99.90;;;;;;5034487;28;20179;-86
2022/01/17 07:31:31;;;;;;;17.97;2.77;;;7.10;99.90;;;;;;5016341;28;20277;-83
2022/01/17 07:33:57;;;;;;;16.70;3.20;;;7.10;99.90;;;;;;5034232;28;20922;-85
2022/01/17 07:36:23;;;;;;;15.63;3.63;;;7.10;99.90;;;;;;5034079;28;20504;-85
2022/01/17 07:38:48;;;;;;;17.67;3.80;;;7.10;99.90;;;;;;5033780;28;20250;-87
2022/01/17 07:41:14;;;;;;;12.57;3.17;;;7.10;99.90;;;;;;5033874;28;20171;-86
2022/01/17 07:43:41;;;;;;;21.80;3.17;;;7.20;99.90;;;;;;5034025;28;20170;-87
2022/01/17 07:46:17;;;;;;;13.70;2.57;;;7.10;99.90;;;;;;5034279;28;20195;-82
2022/01/17 07:51:11;;;;;;;15.53;3.00;;;7.10;99.90;;;;;;5034288;28;21003;-87
2022/01/17 07:53:37;;;;;;;14.23;2.37;;;7.20;99.90;;;;;;5033548;28;20465;-82
2022/01/17 07:56:03;;;;;;;19.90;3.37;;;7.20;99.90;;;;;;5033759;28;20171;-88
2022/01/17 07:58:29;;;;;;;13.53;2.00;;;7.20;99.90;;;;;;5033749;28;20812;-87
2022/01/17 08:00:55;;;;;;;15.10;2.83;;;7.30;99.90;;;;;;5034090;28;20463;-83
2022/01/17 08:03:20;;;;;;;14.77;2.37;;;7.20;99.90;;;;;;5034331;28;20262;-91
2022/01/17 08:05:47;;;;;;;14.00;1.70;;;7.20;99.90;;;;;;5034777;28;20210;-83
2022/01/17 08:08:12;;;;;;;14.97;2.40;;;7.20;99.90;;;;;;5047451;28;20210;-83
2022/01/17 08:10:38;;;;;;;16.07;2.33;;;7.20;99.90;;;;;;5037361;28;20491;-82
2022/01/17 08:13:04;;;;;;;8.73;3.00;;;7.30;99.90;;;;;;5036664;28;20171;-83
2022/01/17 08:15:31;;;;;;;19.93;4.17;;;7.40;99.90;;;;;;5038171;28;20414;-90
2022/01/17 08:17:57;;;;;;;11.53;1.97;;;7.40;99.90;;;;;;5034430;28;20198;-82
2022/01/17 08:20:22;;;;;;;22.60;2.50;;;7.40;99.90;;;;;;5033534;28;21006;-92
2022/01/17 08:22:48;;;;;;;15.53;2.37;;;7.40;99.90;;;;;;5033504;28;20170;-85
2022/01/17 08:25:15;;;;;;;13.77;2.47;;;7.40;99.90;;;;;;5034041;28;20168;-90
2022/01/17 08:27:41;;;;;;;12.10;2.83;;;7.40;99.90;;;;;;5033664;28;20216;-84
2022/01/17 08:30:07;;;;;;;4.20;0.97;;;7.40;99.90;;;;;;5033790;28;20418;-82
2022/01/17 08:32:33;;;;;;;14.20;2.10;;;7.40;99.90;;;;;;5033147;28;20758;-91
2022/01/17 08:34:59;;;;;;;10.87;2.90;;;7.40;99.90;;;;;;5033323;28;20496;-82
2022/01/17 08:37:26;;;;;;;12.30;2.50;;;7.50;99.90;;;;;;5033388;28;20167;-82
2022/01/17 08:39:52;;;;;;;19.27;1.63;;;7.50;99.90;;;;;;5032748;28;20407;-83
2022/01/17 08:42:18;;;;;;;19.97;3.50;;;7.50;99.90;;;;;;5015494;28;20517;-84
2022/01/17 08:44:49;;;;;;;18.63;3.87;;;7.60;99.90;;;;;;5015527;28;20949;-84
2022/01/17 08:47:16;;;;;;;11.33;2.50;;;7.60;99.90;;;;;;5033018;28;20488;-83
2022/01/17 08:49:42;;;;;;;21.90;2.57;;;7.70;99.90;;;;;;5033093;28;20409;-87
2022/01/17 08:52:10;;;;;;;12.10;2.27;;;7.70;99.90;;;;;;5033049;28;20425;-82
2022/01/17 08:54:36;;;;;;;16.30;3.70;;;7.70;99.90;;;;;;5032890;28;20163;-88
2022/01/17 08:57:02;;;;;;;12.33;2.40;;;7.80;99.90;;;;;;5032841;28;20422;-85
2022/01/17 08:59:30;;;;;;;13.30;2.20;;;7.80;99.90;;;;;;5015151;28;20631;-89
2022/01/17 09:01:55;;;;;;;10.87;1.70;;;7.80;99.90;;;;;;4999276;28;20512;-82
2022/01/17 09:04:21;;;;;;;17.77;3.63;;;7.90;99.90;;;;;;5032942;28;20837;-83
2022/01/17 09:06:47;;;;;;;23.77;4.00;;;7.90;99.90;;;;;;5014934;28;20218;-83
2022/01/17 09:09:12;;;;;;;12.20;2.30;;;8.00;99.90;;;;;;5014561;28;20204;-85
2022/01/17 09:11:38;;;;;;;12.47;1.90;;;7.80;99.90;;;;;;5032795;28;20526;-90
2022/01/17 09:14:03;;;;;;;13.70;2.20;;;7.80;99.90;;;;;;5011825;28;20168;-89
2022/01/17 09:16:29;;;;;;;8.60;1.03;;;7.80;99.90;;;;;;5014649;28;20531;-90
2022/01/17 09:18:54;;;;;;;10.17;2.13;;;7.80;99.90;;;;;;5030956;28;20612;-91
2022/01/17 09:21:20;;;;;;;13.10;2.97;;;7.70;99.90;;;;;;5028064;28;20564;-89
2022/01/17 09:23:47;;;;;;;13.73;1.60;;;7.80;99.90;;;;;;5032381;28;20711;-88
2022/01/17 09:26:13;;;;;;;13.20;1.70;;;7.80;99.90;;;;;;5034341;28;20382;-91
2022/01/17 09:28:39;;;;;;;18.07;3.73;;;7.80;99.90;;;;;;5052033;28;20579;-88
2022/01/17 09:31:04;;;;;;;14.87;2.07;;;7.90;99.90;;;;;;5056230;28;20217;-89
2022/01/17 09:33:30;;;;;;;13.50;2.70;;;8.00;99.90;;;;;;5038251;28;20240;-89
2022/01/17 09:35:55;;;;;;;12.90;2.67;;;7.90;99.90;;;;;;5054469;28;20171;-85
2022/01/17 09:38:21;;;;;;;15.33;2.13;;;7.90;99.90;;;;;;5054482;28;20635;-88
2022/01/17 09:40:47;;;;;;;9.53;1.77;;;7.90;99.90;;;;;;5056046;28;20262;-88
2022/01/17 09:43:13;;;;;;;14.53;3.00;;;7.90;99.90;;;;;;5038888;28;20179;-91
2022/01/17 09:45:39;;;;;;;12.53;2.53;;;7.90;99.90;;;;;;5048449;28;20489;-88
2022/01/17 09:48:06;;;;;;;16.87;3.57;;;7.80;99.90;;;;;;5037905;28;20477;-88
2022/01/17 09:50:45;;;;;;;7.10;1.20;;;7.80;99.90;;;;;;5033899;28;20172;-88
2022/01/17 09:53:17;;;;;;;5.60;1.07;;;7.80;99.90;;;;;;5033877;28;21064;-88
2022/01/17 09:55:43;;;;;;;9.07;1.77;;;7.80;99.90;;;;;;5035472;28;20471;-87
2022/01/17 09:58:10;;;;;;;11.43;1.50;;;7.80;99.90;;;;;;5057986;28;20582;-89
2022/01/17 10:00:41;;;;;;;11.10;0.87;;;7.80;99.90;;;;;;5059895;28;20818;-91
2022/01/17 10:03:13;;;;;;;11.23;0.80;;;7.80;99.90;;;;;;5055572;28;20501;-84
2022/01/17 10:05:39;;;;;;;5.23;0.67;;;7.80;99.90;;;;;;5054926;28;20413;-86
2022/01/17 10:08:08;;;;;;;4.73;0.70;;;7.80;99.90;;;;;;5054302;28;20474;-84
2022/01/17 10:10:57;;;;;;;5.10;0.80;;;7.80;99.90;;;;;;5037092;28;20175;-84
2022/01/17 10:13:32;;;;;;;10.60;1.77;;;7.80;99.90;;;;;;5054991;28;20764;-84
2022/01/17 10:16:11;;;;;;;4.97;0.90;;;7.90;99.90;;;;;;5054922;28;20493;-85
2022/01/17 10:19:00;;;;;;;8.20;1.10;;;7.80;99.90;;;;;;5036491;28;20515;-84
2022/01/17 10:21:34;;;;;;;6.10;0.77;;;7.80;99.90;;;;;;5054856;28;21005;-85
2022/01/17 10:37:20;;;;;;;3.83;0.33;;;10.10;99.90;;;;;;5054037;28;20413;-86
2022/01/17 10:39:57;;;;;;;10.40;1.23;;;11.40;99.90;;;;;;5031268;28;21144;-87
2022/01/17 10:42:34;;;;;;;3.97;0.63;;;10.80;99.90;;;;;;5034621;28;20986;-87
2022/01/17 10:45:10;;;;;;;7.40;0.70;;;9.70;99.90;;;;;;5033454;28;20415;-85
2022/01/17 10:47:40;;;;;;;9.10;1.43;;;9.10;99.90;;;;;;5034575;28;20454;-86
2022/01/17 10:50:15;;;;;;;8.10;1.30;;;8.50;99.90;;;;;;5034558;28;20568;-87
2022/01/17 10:52:47;;;;;;;7.30;1.63;;;8.30;99.90;;;;;;5034068;28;20405;-87
2022/01/17 10:55:14;;;;;;;15.10;1.60;;;8.10;99.90;;;;;;5033195;28;20439;-86
2022/01/17 10:57:47;;;;;;;7.30;1.23;;;8.00;99.90;;;;;;5033104;28;20446;-87
2022/01/17 11:00:19;;;;;;;11.27;2.17;;;8.10;99.90;;;;;;5034429;28;20408;-87
2022/01/17 11:02:51;;;;;;;6.80;0.47;;;8.10;99.90;;;;;;5032094;28;20425;-92
2022/01/17 11:05:18;;;;;;;13.10;1.13;;;8.10;99.90;;;;;;5035334;28;20432;-90
2022/01/17 11:07:47;;;;;;;4.33;0.70;;;8.00;99.90;;;;;;5035316;28;20463;-93
2022/01/17 11:10:18;;;;;;;6.07;1.27;;;7.80;99.90;;;;;;5034571;28;20445;-91
2022/01/17 11:12:45;;;;;;;10.30;1.00;;;7.60;99.90;;;;;;5036397;28;20419;-90
2022/01/17 11:15:12;;;;;;;3.73;0.67;;;7.40;99.90;;;;;;5033851;28;20498;-87
2022/01/17 11:17:39;;;;;;;8.77;2.53;;;6.80;99.90;;;;;;5034188;28;20422;-87
2022/01/17 11:20:09;;;;;;;9.93;1.23;;;6.40;99.90;;;;;;5033957;28;20469;-87
2022/01/17 11:22:43;;;;;;;3.27;0.87;;;6.20;99.90;;;;;;5033842;28;20421;-87
2022/01/17 11:25:11;;;;;;;5.10;1.10;;;6.40;99.90;;;;;;5034166;28;20404;-87
2022/01/17 11:27:38;;;;;;;4.80;1.17;;;6.50;99.90;;;;;;5016280;28;20977;-88
2022/01/17 11:30:05;;;;;;;7.90;1.40;;;6.80;99.90;;;;;;5016062;28;20434;-88
2022/01/17 11:32:31;;;;;;;6.30;0.77;;;6.90;99.90;;;;;;5033632;28;20477;-87
2022/01/17 11:34:59;;;;;;;11.97;1.60;;;6.70;99.90;;;;;;5034028;28;20505;-88
2022/01/17 11:37:26;;;;;;;4.87;0.63;;;6.40;99.90;;;;;;5015963;28;20805;-87
2022/01/17 11:39:54;;;;;;;9.83;2.10;;;6.50;99.90;;;;;;5033958;28;20414;-88
2022/01/17 11:42:37;;;;;;;5.97;1.00;;;6.60;99.90;;;;;;5034865;28;20535;-89
2022/01/17 11:45:23;;;;;;;8.20;0.90;;;6.90;99.90;;;;;;5034829;28;20954;-90
2022/01/17 11:47:55;;;;;;;9.67;1.93;;;7.40;99.90;;;;;;5017476;28;20458;-94
2022/01/17 11:50:33;;;;;;;4.70;1.30;;;8.60;99.90;;;;;;5033779;28;20769;-90
2022/01/17 11:53:00;;;;;;;12.70;1.87;;;8.40;99.90;;;;;;5032585;28;20438;-91
2022/01/17 11:55:38;;;;;;;12.80;2.67;;;8.60;99.90;;;;;;5034756;28;20787;-93
2022/01/17 11:58:34;;;;;;;13.53;2.83;;;8.60;99.90;;;;;;5016786;28;20425;-94
2022/01/17 12:01:02;;;;;;;10.33;2.70;;;8.10;99.90;;;;;;5034605;28;21010;-89
2022/01/17 12:03:40;;;;;;;13.40;1.87;;;7.60;99.90;;;;;;5017988;28;20515;-89
2022/01/17 12:06:35;;;;;;;14.70;1.73;;;7.30;99.90;;;;;;5035701;28;20400;-92
2022/01/17 12:09:21;;;;;;;7.47;2.20;;;7.20;99.90;;;;;;5040650;28;20469;-90
2022/01/17 12:11:49;;;;;;;9.03;2.30;;;7.30;99.90;;;;;;5027743;28;20501;-94
2022/01/17 12:14:33;;;;;;;9.43;1.80;;;7.50;99.90;;;;;;5044777;28;20483;-96
2022/01/17 12:17:27;;;;;;;9.17;1.73;;;7.70;99.90;;;;;;5021492;28;20411;-91
2022/01/17 12:20:06;;;;;;;12.03;2.50;;;7.70;99.90;;;;;;5031801;28;20528;-94
2022/01/17 12:22:46;;;;;;;11.40;1.83;;;7.80;99.90;;;;;;5031901;28;20794;-94
2022/01/17 12:25:21;;;;;;;14.40;2.73;;;7.60;99.90;;;;;;5029519;28;20509;-92
2022/01/17 12:27:48;;;;;;;15.10;2.87;;;7.60;99.90;;;;;;5064372;28;20548;-93
2022/01/17 12:30:15;;;;;;;13.53;1.97;;;8.30;99.90;;;;;;5031511;28;20475;-93
2022/01/17 12:32:45;;;;;;;10.37;1.17;;;8.20;99.90;;;;;;5031424;28;20932;-92
2022/01/17 12:35:15;;;;;;;10.93;2.00;;;7.80;99.90;;;;;;5025854;28;20430;-93
2022/01/17 12:38:03;;;;;;;12.80;3.10;;;7.60;99.90;;;;;;5021873;28;20500;-93
2022/01/17 12:40:44;;;;;;;6.33;1.57;;;7.60;99.90;;;;;;5019109;28;20427;-92
2022/01/17 12:43:11;;;;;;;18.53;3.60;;;7.50;99.90;;;;;;5007392;28;20420;-90
2022/01/17 12:45:45;;;;;;;13.50;2.63;;;7.50;99.90;;;;;;5033083;28;20419;-91
2022/01/17 12:48:17;;;;;;;11.80;2.43;;;7.60;99.90;;;;;;5014165;28;20902;-93
2022/01/17 12:50:47;;;;;;;16.17;3.40;;;7.40;99.90;;;;;;5008093;28;20439;-94
2022/01/17 12:53:17;;;;;;;12.23;2.17;;;7.20;99.90;;;;;;5026938;28;20450;-91
2022/01/17 12:55:45;;;;;;;11.23;2.50;;;7.20;99.90;;;;;;5028360;28;20423;-91
2022/01/17 12:58:14;;;;;;;21.97;3.70;;;7.20;99.90;;;;;;5018571;28;20420;-92
2022/01/17 13:00:47;;;;;;;7.77;1.70;;;7.10;99.90;;;;;;5019509;28;20762;-92
2022/01/17 13:03:15;;;;;;;12.60;2.83;;;7.00;99.90;;;;;;5017775;28;20811;-91
2022/01/17 13:05:44;;;;;;;24.70;2.90;;;7.10;99.90;;;;;;5001180;28;20920;-92
2022/01/17 13:08:11;;;;;;;7.20;1.67;;;7.00;99.90;;;;;;5000208;28;20510;-94
2022/01/17 13:10:36;;;;;;;14.30;2.33;;;7.00;99.90;;;;;;5017043;28;20492;-92
2022/01/17 13:13:02;;;;;;;20.47;4.30;;;7.00;99.90;;;;;;5017525;28;20455;-93
2022/01/17 13:15:28;;;;;;;12.10;2.77;;;6.90;99.90;;;;;;5018318;28;20177;-90
2022/01/17 13:17:55;;;;;;;10.17;2.10;;;7.00;99.90;;;;;;5000288;28;20415;-94
2022/01/17 13:20:22;;;;;;;9.27;2.50;;;6.90;99.90;;;;;;5036439;28;20524;-94